Time,TemperatureF,DewpointF,PressureIn,WindDirection,WindDirectionDegrees,WindSpeedMPH,WindSpeedGustMPH,Humidity,HourlyPrecipIn,Conditions,Clouds,dailyrainin,SolarRadiationWatts/m^2,SoftwareType,DateUTC
2013-08-30 00:02:00,65.0,64.0,-100.00,WSW,239,1.0,6.0,96,0.00,,,0.21,0.000000,,2013-08-30 05:02:00,
2013-08-30 00:23:00,65.0,64.0,-100.00,WSW,239,1.0,6.0,96,0.00,,,0.21,0.000000,,2013-08-30 05:23:00,
2013-08-30 00:35:00,65.0,64.0,-100.00,WSW,239,1.0,6.0,96,0.00,,,0.21,0.000000,,2013-08-30 05:35:00,
2013-08-30 00:42:00,65.0,64.0,-100.00,WSW,239,1.0,6.0,96,0.00,,,0.21,0.000000,,2013-08-30 05:42:00,
2013-08-30 00:52:00,65.0,64.0,-100.00,WSW,239,1.0,6.0,96,0.00,,,0.21,0.000000,,2013-08-30 05:52:00,
2013-08-30 01:02:00,65.0,63.0,-100.00,SW,225,6.0,12.0,94,0.01,,,0.22,0.000000,,2013-08-30 06:02:00,
2013-08-30 01:22:00,65.0,63.0,-100.00,SW,225,6.0,12.0,94,0.01,,,0.22,0.000000,,2013-08-30 06:22:00,
2013-08-30 01:32:00,65.0,63.0,-100.00,SW,225,6.0,12.0,94,0.01,,,0.22,0.000000,,2013-08-30 06:32:00,
2013-08-30 01:42:00,65.0,63.0,-100.00,SW,225,6.0,12.0,94,0.01,,,0.22,0.000000,,2013-08-30 06:42:00,
2013-08-30 01:53:00,65.0,63.0,-100.00,SW,225,6.0,12.0,94,0.01,,,0.22,0.000000,,2013-08-30 06:53:00,
2013-08-30 02:02:00,66.0,65.0,-100.00,SSW,198,4.0,12.0,95,0.00,,,0.22,0.000000,,2013-08-30 07:02:00,
2013-08-30 02:22:00,66.0,65.0,-100.00,SSW,198,4.0,12.0,95,0.00,,,0.22,0.000000,,2013-08-30 07:22:00,
2013-08-30 02:32:00,66.0,65.0,-100.00,SSW,198,4.0,12.0,95,0.00,,,0.22,0.000000,,2013-08-30 07:32:00,
2013-08-30 02:44:00,66.0,65.0,-100.00,SSW,198,4.0,12.0,95,0.00,,,0.22,0.000000,,2013-08-30 07:44:00,
2013-08-30 02:53:00,66.0,65.0,-100.00,SSW,198,4.0,12.0,95,0.00,,,0.22,0.000000,,2013-08-30 07:53:00,
2013-08-30 03:22:00,67.0,66.0,-100.00,SW,217,6.0,14.0,97,0.01,,,0.23,0.000000,,2013-08-30 08:22:00,
2013-08-30 03:32:00,67.0,66.0,-100.00,SW,217,6.0,14.0,97,0.01,,,0.23,0.000000,,2013-08-30 08:32:00,
2013-08-30 03:43:00,67.0,66.0,-100.00,SW,217,6.0,14.0,97,0.01,,,0.23,0.000000,,2013-08-30 08:43:00,
2013-08-30 03:52:00,67.0,66.0,-100.00,SW,217,6.0,14.0,97,0.01,,,0.23,0.000000,,2013-08-30 08:52:00,
2013-08-30 04:01:00,67.0,66.0,-100.00,SW,217,6.0,14.0,97,0.01,,,0.23,0.000000,,2013-08-30 09:01:00,
2013-08-30 04:02:00,68.0,67.0,-100.00,SW,234,6.0,16.0,96,0.00,,,0.23,0.000000,,2013-08-30 09:02:00,
2013-08-30 04:22:00,68.0,67.0,-100.00,SW,234,6.0,16.0,96,0.00,,,0.23,0.000000,,2013-08-30 09:22:00,
2013-08-30 04:33:00,68.0,67.0,-100.00,SW,234,6.0,16.0,96,0.00,,,0.23,0.000000,,2013-08-30 09:33:00,
2013-08-30 04:44:00,68.0,67.0,-100.00,SW,234,6.0,16.0,96,0.00,,,0.23,0.000000,,2013-08-30 09:44:00,
2013-08-30 04:53:00,68.0,67.0,-100.00,SW,234,6.0,16.0,96,0.00,,,0.23,0.000000,,2013-08-30 09:53:00,
2013-08-30 05:02:00,69.0,68.0,-100.00,WSW,244,7.0,13.0,97,0.00,,,0.23,0.000000,,2013-08-30 10:02:00,
2013-08-30 05:23:00,69.0,68.0,-100.00,WSW,244,7.0,13.0,97,0.00,,,0.23,0.000000,,2013-08-30 10:23:00,
2013-08-30 05:32:00,69.0,68.0,-100.00,WSW,244,7.0,13.0,97,0.00,,,0.23,0.000000,,2013-08-30 10:32:00,
2013-08-30 05:43:00,69.0,68.0,-100.00,WSW,244,7.0,13.0,97,0.00,,,0.23,0.000000,,2013-08-30 10:43:00,
2013-08-30 05:53:00,69.0,68.0,-100.00,WSW,244,7.0,13.0,97,0.00,,,0.23,0.000000,,2013-08-30 10:53:00,
2013-08-30 06:23:00,70.0,69.0,-100.00,West,269,5.0,11.0,98,0.00,,,-99.99,0.000000,,2013-08-30 11:23:00,
2013-08-30 06:33:00,70.0,69.0,-100.00,West,269,5.0,11.0,98,0.00,,,-99.99,0.000000,,2013-08-30 11:33:00,
2013-08-30 06:42:00,70.0,69.0,-100.00,West,269,5.0,11.0,98,0.00,,,-99.99,0.000000,,2013-08-30 11:42:00,
2013-08-30 06:52:00,70.0,69.0,-100.00,West,269,5.0,11.0,98,0.00,,,-99.99,0.000000,,2013-08-30 11:52:00,
2013-08-30 07:01:00,70.0,69.0,-100.00,West,269,5.0,11.0,98,0.00,,,-99.99,0.000000,,2013-08-30 12:01:00,
2013-08-30 07:02:00,70.0,68.0,-100.00,WNW,296,5.0,12.0,95,0.00,,,0.23,2.000000,,2013-08-30 12:02:00,
2013-08-30 07:21:00,70.0,68.0,-100.00,WNW,296,5.0,12.0,95,0.00,,,0.23,2.000000,,2013-08-30 12:21:00,
2013-08-30 07:32:00,70.0,68.0,-100.00,WNW,296,5.0,12.0,95,0.00,,,0.23,2.000000,,2013-08-30 12:32:00,
2013-08-30 07:42:00,70.0,68.0,-100.00,WNW,296,5.0,12.0,95,0.00,,,0.23,2.000000,,2013-08-30 12:42:00,
2013-08-30 07:52:00,70.0,68.0,-100.00,WNW,296,5.0,12.0,95,0.00,,,0.23,2.000000,,2013-08-30 12:52:00,
2013-08-30 08:02:00,67.0,65.0,-100.00,NNW,343,5.0,15.0,92,0.00,,,0.23,27.000000,,2013-08-30 13:02:00,
2013-08-30 08:42:00,67.0,65.0,-100.00,NNW,343,5.0,15.0,92,0.00,,,0.23,27.000000,,2013-08-30 13:42:00,
2013-08-30 08:52:00,67.0,65.0,-100.00,NNW,343,5.0,15.0,92,0.00,,,0.23,27.000000,,2013-08-30 13:52:00,
2013-08-30 09:02:00,68.0,64.0,-100.00,North,351,6.0,14.0,88,0.00,,,0.23,221.000000,,2013-08-30 14:02:00,
2013-08-30 09:42:00,68.0,64.0,-100.00,North,351,6.0,14.0,88,0.00,,,0.23,221.000000,,2013-08-30 14:42:00,
2013-08-30 09:52:00,68.0,64.0,-100.00,North,351,6.0,14.0,88,0.00,,,0.23,221.000000,,2013-08-30 14:52:00,
2013-08-30 10:02:00,67.0,63.0,-100.00,North,11,7.0,18.0,87,0.00,,,0.23,209.000000,,2013-08-30 15:02:00,
2013-08-30 10:43:00,67.0,63.0,-100.00,North,11,7.0,18.0,87,0.00,,,0.23,209.000000,,2013-08-30 15:43:00,
2013-08-30 10:54:00,67.0,63.0,-100.00,North,11,7.0,18.0,87,0.00,,,0.23,209.000000,,2013-08-30 15:54:00,
2013-08-30 11:02:00,68.0,63.0,-100.00,North,8,5.0,13.0,83,0.00,,,0.23,277.000000,,2013-08-30 16:02:00,
2013-08-30 11:43:00,68.0,63.0,-100.00,North,8,5.0,13.0,83,0.00,,,0.23,277.000000,,2013-08-30 16:43:00,
2013-08-30 11:53:00,68.0,63.0,-100.00,North,8,5.0,13.0,83,0.00,,,0.23,277.000000,,2013-08-30 16:53:00,
2013-08-30 12:02:00,69.0,63.0,-100.00,North,354,6.0,15.0,82,0.00,,,0.23,262.000000,,2013-08-30 17:02:00,
2013-08-30 12:23:00,69.0,63.0,-100.00,North,354,6.0,15.0,82,0.00,,,0.23,262.000000,,2013-08-30 17:23:00,
2013-08-30 12:34:00,69.0,63.0,-100.00,North,354,6.0,15.0,82,0.00,,,0.23,262.000000,,2013-08-30 17:34:00,
2013-08-30 12:42:00,69.0,63.0,-100.00,North,354,6.0,15.0,82,0.00,,,0.23,262.000000,,2013-08-30 17:42:00,
2013-08-30 12:53:00,69.0,63.0,-100.00,North,354,6.0,15.0,82,0.00,,,0.23,262.000000,,2013-08-30 17:53:00,
2013-08-30 13:42:00,73.0,63.0,-100.00,NNE,24,7.0,17.0,70,0.00,,,0.23,660.000000,,2013-08-30 18:42:00,
2013-08-30 13:52:00,73.0,63.0,-100.00,NNE,24,7.0,17.0,70,0.00,,,0.23,660.000000,,2013-08-30 18:52:00,
2013-08-30 14:01:00,73.0,63.0,-100.00,NNE,24,7.0,17.0,70,0.00,,,0.23,660.000000,,2013-08-30 19:01:00,
2013-08-30 14:02:00,74.0,63.0,-100.00,North,10,6.0,20.0,68,0.00,,,0.23,708.000000,,2013-08-30 19:02:00,
2013-08-30 14:42:00,74.0,63.0,-100.00,North,10,6.0,20.0,68,0.00,,,0.23,708.000000,,2013-08-30 19:42:00,
2013-08-30 14:53:00,74.0,63.0,-100.00,North,10,6.0,20.0,68,0.00,,,0.23,708.000000,,2013-08-30 19:53:00,
2013-08-30 15:02:00,76.0,62.0,-100.00,NE,41,6.0,14.0,63,0.00,,,0.23,719.000000,,2013-08-30 20:02:00,
2013-08-30 15:22:00,76.0,62.0,-100.00,NE,41,6.0,14.0,63,0.00,,,0.23,719.000000,,2013-08-30 20:22:00,
2013-08-30 15:32:00,76.0,62.0,-100.00,NE,41,6.0,14.0,63,0.00,,,0.23,719.000000,,2013-08-30 20:32:00,
2013-08-30 15:43:00,76.0,62.0,-100.00,NE,41,6.0,14.0,63,0.00,,,0.23,719.000000,,2013-08-30 20:43:00,
2013-08-30 15:52:00,76.0,62.0,-100.00,NE,41,6.0,14.0,63,0.00,,,0.23,719.000000,,2013-08-30 20:52:00,
2013-08-30 16:02:00,76.0,62.0,-100.00,NNE,29,6.0,18.0,63,0.00,,,0.23,521.000000,,2013-08-30 21:02:00,
2013-08-30 16:22:00,76.0,62.0,-100.00,NNE,29,6.0,18.0,63,0.00,,,0.23,521.000000,,2013-08-30 21:22:00,
2013-08-30 16:34:00,76.0,62.0,-100.00,NNE,29,6.0,18.0,63,0.00,,,0.23,521.000000,,2013-08-30 21:34:00,
2013-08-30 16:44:00,76.0,62.0,-100.00,NNE,29,6.0,18.0,63,0.00,,,0.23,521.000000,,2013-08-30 21:44:00,
2013-08-30 16:55:00,76.0,62.0,-100.00,NNE,29,6.0,18.0,63,0.00,,,0.23,521.000000,,2013-08-30 21:55:00,
2013-08-30 17:02:00,75.0,63.0,-100.00,NNE,25,6.0,13.0,67,0.00,,,0.23,300.000000,,2013-08-30 22:02:00,
2013-08-30 17:43:00,75.0,63.0,-100.00,NNE,25,6.0,13.0,67,0.00,,,0.23,300.000000,,2013-08-30 22:43:00,
2013-08-30 17:54:00,75.0,63.0,-100.00,NNE,25,6.0,13.0,67,0.00,,,0.23,300.000000,,2013-08-30 22:54:00,
2013-08-30 18:02:00,70.0,61.0,-100.00,NE,38,4.0,14.0,73,0.00,,,0.20,211.000000,,2013-08-30 23:02:00,
2013-08-30 18:22:00,70.0,61.0,-100.00,NE,38,4.0,14.0,73,0.00,,,0.20,211.000000,,2013-08-30 23:22:00,
2013-08-30 18:33:00,70.0,61.0,-100.00,NE,38,4.0,14.0,73,0.00,,,0.20,211.000000,,2013-08-30 23:33:00,
2013-08-30 18:42:00,70.0,61.0,-100.00,NE,38,4.0,14.0,73,0.00,,,0.20,211.000000,,2013-08-30 23:42:00,
2013-08-30 18:53:00,70.0,61.0,-100.00,NE,38,4.0,14.0,73,0.00,,,0.20,211.000000,,2013-08-30 23:53:00,
2013-08-30 19:22:00,66.0,60.0,-100.00,NE,38,4.0,12.0,80,0.00,,,0.18,65.000000,,2013-08-31 00:22:00,
2013-08-30 19:32:00,66.0,60.0,-100.00,NE,38,4.0,12.0,80,0.00,,,0.18,65.000000,,2013-08-31 00:32:00,
2013-08-30 19:42:00,66.0,60.0,-100.00,NE,38,4.0,12.0,80,0.00,,,0.18,65.000000,,2013-08-31 00:42:00,
2013-08-30 19:52:00,66.0,60.0,-100.00,NE,38,4.0,12.0,80,0.00,,,0.18,65.000000,,2013-08-31 00:52:00,
2013-08-30 20:01:00,66.0,60.0,-100.00,NE,38,4.0,12.0,80,0.00,,,0.18,65.000000,,2013-08-31 01:01:00,
2013-08-30 20:02:00,64.0,59.0,-100.00,NE,37,4.0,9.0,83,0.00,,,0.10,9.000000,,2013-08-31 01:02:00,
2013-08-30 20:42:00,64.0,59.0,-100.00,NE,37,4.0,9.0,83,0.00,,,0.10,9.000000,,2013-08-31 01:42:00,
2013-08-30 20:52:00,64.0,59.0,-100.00,NE,37,4.0,9.0,83,0.00,,,0.10,9.000000,,2013-08-31 01:52:00,
2013-08-30 22:02:00,60.0,59.0,-100.00,NE,51,2.0,5.0,97,-99.99,,,0.02,0.000000,,2013-08-31 03:02:00,
2013-08-30 22:45:00,60.0,59.0,-100.00,NE,51,2.0,5.0,97,-99.99,,,0.02,0.000000,,2013-08-31 03:45:00,
2013-08-30 22:54:00,60.0,59.0,-100.00,NE,51,2.0,5.0,97,-99.99,,,0.02,0.000000,,2013-08-31 03:54:00,
2013-08-30 23:02:00,60.0,59.0,-100.00,NE,36,1.0,4.0,95,0.00,,,0.02,0.000000,,2013-08-31 04:02:00,
2013-08-30 23:24:00,60.0,59.0,-100.00,NE,36,1.0,4.0,95,0.00,,,0.02,0.000000,,2013-08-31 04:24:00,
2013-08-30 23:34:00,60.0,59.0,-100.00,NE,36,1.0,4.0,95,0.00,,,0.02,0.000000,,2013-08-31 04:34:00,
2013-08-30 23:44:00,60.0,59.0,-100.00,NE,36,1.0,4.0,95,0.00,,,0.02,0.000000,,2013-08-31 04:44:00,
2013-08-30 23:54:00,60.0,59.0,-100.00,NE,36,1.0,4.0,95,0.00,,,0.02,0.000000,,2013-08-31 04:54:00,